createdAt,value
2018-06-14T00:00:44.337Z,3.70
2018-06-14T00:03:13.117Z,5.17
2018-06-14T00:05:41.823Z,4.67
2018-06-14T00:08:10.630Z,4.23
2018-06-14T00:10:39.453Z,3.90
2018-06-14T00:13:07.773Z,3.87
2018-06-14T00:15:36.533Z,4.37
2018-06-14T00:18:05.621Z,4.43
2018-06-14T00:20:34.682Z,4.33
2018-06-14T00:23:04.069Z,4.30
2018-06-14T00:25:32.753Z,4.40
2018-06-14T00:28:01.418Z,4.07
2018-06-14T00:30:30.861Z,4.10
2018-06-14T00:32:59.579Z,4.33
2018-06-14T00:35:28.305Z,4.20
2018-06-14T00:37:57.032Z,4.57
2018-06-14T00:40:25.768Z,4.27
2018-06-14T00:42:54.462Z,4.40
2018-06-14T00:45:23.159Z,4.43
2018-06-14T00:47:51.814Z,4.33
2018-06-14T00:50:20.818Z,4.37
2018-06-14T00:52:49.488Z,4.00
2018-06-14T00:55:18.169Z,4.33
2018-06-14T00:57:46.901Z,4.57
2018-06-14T01:00:15.618Z,3.80
2018-06-14T01:02:44.330Z,4.30
2018-06-14T01:05:12.959Z,4.07
2018-06-14T01:07:41.629Z,4.40
2018-06-14T01:10:10.282Z,4.23
2018-06-14T01:12:39.105Z,4.47
2018-06-14T01:15:07.828Z,4.03
2018-06-14T01:17:36.462Z,4.20
2018-06-14T01:20:05.440Z,4.13
2018-06-14T01:22:34.173Z,4.10
2018-06-14T01:25:02.824Z,4.17
2018-06-14T01:27:31.494Z,4.37
2018-06-14T01:30:00.178Z,4.30
2018-06-14T01:32:28.845Z,4.90
2018-06-14T01:34:57.477Z,4.57
2018-06-14T01:38:37.483Z,4.67
2018-06-14T01:41:06.186Z,4.37
2018-06-14T01:43:34.928Z,4.70
2018-06-14T01:46:03.565Z,4.13
2018-06-14T01:48:32.289Z,4.80
2018-06-14T01:51:00.941Z,4.67
2018-06-14T01:53:29.777Z,4.23
2018-06-14T01:55:58.997Z,4.37
2018-06-14T01:58:30.689Z,4.23
2018-06-14T02:01:00.788Z,4.47
2018-06-14T02:03:29.649Z,4.27
2018-06-14T02:05:58.273Z,4.60
2018-06-14T02:08:27.000Z,4.70
2018-06-14T02:10:55.641Z,5.07
2018-06-14T02:13:24.694Z,4.53
2018-06-14T02:15:53.360Z,4.53
2018-06-14T02:18:22.203Z,4.77
2018-06-14T02:20:51.359Z,4.17
2018-06-14T02:23:20.007Z,4.40
2018-06-14T02:25:48.609Z,4.20
2018-06-14T02:28:17.273Z,4.83
2018-06-14T02:30:45.877Z,4.37
2018-06-14T02:33:14.563Z,4.73
2018-06-14T02:35:43.491Z,4.70
2018-06-14T02:38:12.166Z,4.97
2018-06-14T02:40:40.952Z,5.00
2018-06-14T02:43:09.637Z,4.40
2018-06-14T02:45:38.237Z,4.90
2018-06-14T02:48:06.826Z,5.10
2018-06-14T02:50:35.493Z,4.77
2018-06-14T02:53:04.219Z,4.83
2018-06-14T02:55:32.841Z,4.63
2018-06-14T02:58:01.501Z,4.57
2018-06-14T03:00:30.241Z,4.37
2018-06-14T03:02:58.898Z,4.57
2018-06-14T03:05:27.727Z,6.43
2018-06-14T03:07:56.364Z,4.87
2018-06-14T03:10:24.928Z,4.67
2018-06-14T03:12:54.059Z,5.00
2018-06-14T03:15:25.528Z,5.33
2018-06-14T03:17:54.629Z,4.93
2018-06-14T03:20:27.900Z,5.00
2018-06-14T03:22:57.835Z,4.60
2018-06-14T03:25:26.465Z,4.43
2018-06-14T03:27:55.095Z,5.33
2018-06-14T03:30:23.810Z,4.73
2018-06-14T03:32:52.753Z,5.33
2018-06-14T03:35:21.820Z,5.10
2018-06-14T03:37:51.057Z,4.90
2018-06-14T03:40:19.780Z,4.93
2018-06-14T03:42:48.038Z,4.90
2018-06-14T03:45:17.782Z,4.37
2018-06-14T03:47:47.792Z,4.97
2018-06-14T03:50:16.463Z,4.87
2018-06-14T03:52:45.053Z,4.70
2018-06-14T03:55:13.944Z,5.40
2018-06-14T03:57:42.578Z,5.53
2018-06-14T04:00:11.261Z,5.60
2018-06-14T04:02:40.801Z,4.90
2018-06-14T04:05:09.507Z,4.93
2018-06-14T04:07:38.143Z,5.20
2018-06-14T04:10:07.165Z,5.17
2018-06-14T04:12:35.749Z,5.30
2018-06-14T04:15:04.388Z,5.03
2018-06-14T04:17:33.395Z,4.73
2018-06-14T04:20:01.973Z,4.73
2018-06-14T04:22:30.620Z,4.90
2018-06-14T04:24:59.239Z,5.23
2018-06-14T04:27:27.962Z,5.50
2018-06-14T04:29:56.484Z,5.80
2018-06-14T04:32:25.111Z,5.20
2018-06-14T04:34:53.875Z,5.20
2018-06-14T04:37:22.646Z,5.50
2018-06-14T04:39:51.380Z,5.20
2018-06-14T04:42:19.659Z,4.87
2018-06-14T04:44:48.272Z,5.20
2018-06-14T04:47:16.933Z,5.57
2018-06-14T04:49:46.181Z,5.33
2018-06-14T04:52:15.041Z,5.33
2018-06-14T04:54:47.924Z,5.00
2018-06-14T04:57:16.940Z,5.00
2018-06-14T04:59:45.631Z,5.40
2018-06-14T05:02:14.357Z,5.07
2018-06-14T05:04:42.946Z,4.53
2018-06-14T05:07:11.538Z,5.33
2018-06-14T05:09:40.326Z,5.23
2018-06-14T05:12:09.142Z,5.47
2018-06-14T05:14:37.751Z,4.93
2018-06-14T05:17:06.468Z,5.10
2018-06-14T05:19:35.089Z,5.07
2018-06-14T05:22:03.731Z,5.17
2018-06-14T05:24:32.040Z,4.90
2018-06-14T05:27:01.016Z,5.30
2018-06-14T05:29:29.728Z,5.23
2018-06-14T05:31:58.332Z,5.17
2018-06-14T05:34:26.990Z,4.63
2018-06-14T05:36:55.631Z,5.00
2018-06-14T05:39:24.269Z,4.70
2018-06-14T05:41:52.927Z,4.93
2018-06-14T05:44:21.538Z,5.30
2018-06-14T05:46:50.180Z,6.07
2018-06-14T05:49:18.783Z,5.30
2018-06-14T05:51:47.389Z,5.10
2018-06-14T05:54:16.050Z,5.80
2018-06-14T05:56:44.646Z,6.00
2018-06-14T05:59:13.307Z,6.23
2018-06-14T06:01:41.945Z,5.33
2018-06-14T06:04:10.648Z,5.50
2018-06-14T06:06:39.376Z,5.10
2018-06-14T06:09:10.171Z,5.27
2018-06-14T06:11:39.137Z,4.77
2018-06-14T06:14:07.826Z,5.17
2018-06-14T06:16:36.455Z,5.30
2018-06-14T06:19:05.361Z,4.90
2018-06-14T06:21:33.984Z,4.53
2018-06-14T06:24:02.607Z,4.47
2018-06-14T06:26:31.161Z,5.40
2018-06-14T06:28:59.768Z,5.00
2018-06-14T06:31:28.394Z,5.10
2018-06-14T06:33:57.119Z,4.90
2018-06-14T06:36:25.773Z,5.70
2018-06-14T06:38:54.419Z,4.97
2018-06-14T06:41:23.074Z,6.37
2018-06-14T06:43:51.764Z,6.53
2018-06-14T06:46:20.673Z,6.50
2018-06-14T06:48:49.344Z,5.43
2018-06-14T06:51:24.571Z,6.57
2018-06-14T06:53:53.188Z,6.50
2018-06-14T06:56:21.905Z,5.43
2018-06-14T06:58:50.961Z,5.47
2018-06-14T07:01:19.636Z,5.90
2018-06-14T07:03:48.270Z,7.17
2018-06-14T07:06:16.897Z,7.00
2018-06-14T07:08:45.917Z,6.83
2018-06-14T07:11:14.520Z,6.90
2018-06-14T07:13:43.397Z,6.67
2018-06-14T07:16:12.412Z,6.33
2018-06-14T07:18:41.814Z,6.00
2018-06-14T07:21:10.853Z,5.87
2018-06-14T07:23:40.045Z,5.60
2018-06-14T07:26:08.852Z,6.30
2018-06-14T07:28:37.601Z,6.07
2018-06-14T07:31:12.016Z,5.73
2018-06-14T07:33:40.604Z,5.37
2018-06-14T07:36:09.332Z,5.00
2018-06-14T07:38:38.422Z,4.60
2018-06-14T07:41:07.006Z,4.27
2018-06-14T07:43:35.652Z,2.97
2018-06-14T07:46:05.089Z,2.80
2018-06-14T07:48:33.742Z,3.30
2018-06-14T07:51:02.432Z,3.03
2018-06-14T07:53:31.029Z,1.60
2018-06-14T07:56:00.047Z,1.97
2018-06-14T07:58:33.281Z,1.80
2018-06-14T08:01:02.423Z,2.00
2018-06-14T08:03:31.076Z,1.40
2018-06-14T08:05:59.693Z,1.60
2018-06-14T08:08:28.757Z,1.50
2018-06-14T08:10:57.298Z,1.33
2018-06-14T08:13:25.949Z,1.70
2018-06-14T08:15:54.904Z,1.77
2018-06-14T08:18:23.531Z,1.83
2018-06-14T08:20:52.078Z,1.80
2018-06-14T08:23:20.670Z,1.53
2018-06-14T08:25:49.334Z,1.87
2018-06-14T08:28:17.962Z,1.60
2018-06-14T08:30:46.880Z,2.00
2018-06-14T08:33:15.501Z,1.80
2018-06-14T08:35:44.224Z,1.97
2018-06-14T08:38:12.806Z,1.80
2018-06-14T08:40:41.454Z,1.73
2018-06-14T08:43:10.167Z,2.33
2018-06-14T08:45:38.748Z,1.73
2018-06-14T08:48:07.346Z,1.70
2018-06-14T08:50:35.899Z,1.90
2018-06-14T08:53:04.749Z,1.87
2018-06-14T08:55:33.612Z,1.83
2018-06-14T08:58:02.274Z,2.03
2018-06-14T09:00:30.981Z,2.57
2018-06-14T09:02:59.638Z,2.10
2018-06-14T09:05:28.269Z,1.73
2018-06-14T09:07:58.353Z,2.43
2018-06-14T09:10:27.221Z,2.40
2018-06-14T09:12:56.004Z,1.87
2018-06-14T09:15:24.718Z,1.90
2018-06-14T09:17:53.634Z,2.13
2018-06-14T09:20:21.914Z,2.10
2018-06-14T09:22:50.789Z,2.30
2018-06-14T09:25:19.424Z,2.30
2018-06-14T09:27:48.090Z,2.30
2018-06-14T09:30:16.692Z,2.30
2018-06-14T09:32:45.365Z,2.20
2018-06-14T09:35:13.953Z,2.20
2018-06-14T09:37:42.608Z,2.20
2018-06-14T09:40:11.502Z,2.10
2018-06-14T09:42:41.136Z,2.50
2018-06-14T09:45:09.814Z,2.23
2018-06-14T09:47:38.780Z,2.30
2018-06-14T09:50:07.518Z,2.17
2018-06-14T09:52:36.134Z,1.90
2018-06-14T09:55:04.882Z,2.03
2018-06-14T09:57:33.452Z,2.17
2018-06-14T10:00:02.081Z,1.93
2018-06-14T10:02:30.876Z,2.00
2018-06-14T10:04:59.539Z,2.00
2018-06-14T10:07:30.968Z,2.10
2018-06-14T10:09:59.692Z,2.00
2018-06-14T10:12:30.245Z,2.10
2018-06-14T10:14:58.861Z,2.30
2018-06-14T10:17:27.639Z,2.30
2018-06-14T10:19:56.378Z,1.97
2018-06-14T10:22:25.008Z,1.83
2018-06-14T10:24:53.647Z,2.10
2018-06-14T10:27:23.086Z,1.80
2018-06-14T10:29:59.582Z,1.80
2018-06-14T10:32:28.245Z,1.97
2018-06-14T10:34:57.721Z,2.80
2018-06-14T10:37:26.290Z,2.20
2018-06-14T10:39:55.485Z,2.23
2018-06-14T10:42:24.127Z,2.20
2018-06-14T10:44:52.700Z,2.10
2018-06-14T10:47:21.453Z,2.33
2018-06-14T10:49:50.279Z,2.57
2018-06-14T10:52:18.848Z,2.27
2018-06-14T10:54:47.654Z,1.80
2018-06-14T10:57:16.344Z,2.20
2018-06-14T10:59:44.897Z,2.00
2018-06-14T11:02:13.776Z,1.57
2018-06-14T11:04:43.056Z,2.47
2018-06-14T11:07:11.690Z,2.40
2018-06-14T11:09:40.231Z,2.43
2018-06-14T11:12:08.928Z,2.50
2018-06-14T11:14:37.604Z,2.50
2018-06-14T11:17:12.108Z,2.30
2018-06-14T11:19:40.853Z,2.00
2018-06-14T11:22:09.475Z,1.97
2018-06-14T11:24:38.428Z,1.80
2018-06-14T11:27:07.121Z,2.20
2018-06-14T11:29:40.791Z,2.00
2018-06-14T11:32:09.406Z,1.73
2018-06-14T11:34:38.070Z,1.90
2018-06-14T11:37:06.788Z,1.60
2018-06-14T11:39:35.487Z,1.80
2018-06-14T11:42:04.134Z,1.80
2018-06-14T11:44:32.812Z,2.20
2018-06-14T11:47:01.518Z,1.83
2018-06-14T11:49:30.158Z,2.17
2018-06-14T11:51:58.798Z,2.03
2018-06-14T11:54:27.632Z,1.97
2018-06-14T11:56:56.441Z,2.03
2018-06-14T11:59:36.232Z,2.03
2018-06-14T12:02:05.018Z,2.10
2018-06-14T12:04:33.637Z,1.93
2018-06-14T12:07:02.269Z,2.03
2018-06-14T12:09:30.851Z,1.80
2018-06-14T12:12:04.131Z,2.10
2018-06-14T12:14:32.768Z,2.00
2018-06-14T12:17:01.425Z,2.00
2018-06-14T12:19:30.061Z,1.80
2018-06-14T12:21:58.735Z,2.20
2018-06-14T12:24:27.384Z,2.00
2018-06-14T12:26:56.041Z,1.90
2018-06-14T12:29:24.698Z,2.10
2018-06-14T12:31:53.266Z,2.00
2018-06-14T12:34:22.674Z,2.00
2018-06-14T12:36:51.359Z,1.70
2018-06-14T12:39:20.608Z,1.87
2018-06-14T12:41:49.218Z,2.10
2018-06-14T12:44:17.972Z,2.00
2018-06-14T12:46:46.546Z,2.20
2018-06-14T12:49:15.170Z,1.93
2018-06-14T12:51:43.854Z,2.10
2018-06-14T12:54:12.509Z,1.77
2018-06-14T12:56:41.101Z,2.00
2018-06-14T12:59:09.716Z,1.80
2018-06-14T13:01:43.553Z,1.83
2018-06-14T13:04:12.297Z,1.93
2018-06-14T13:06:40.897Z,2.33
2018-06-14T13:09:11.913Z,2.00
2018-06-14T13:11:40.808Z,2.00
2018-06-14T13:14:10.377Z,1.83
2018-06-14T13:16:39.000Z,1.80
2018-06-14T13:19:07.597Z,2.00
2018-06-14T13:21:37.567Z,2.00
2018-06-14T13:24:06.267Z,2.10
2018-06-14T13:26:34.905Z,1.90
2018-06-14T13:29:04.500Z,2.07
2018-06-14T13:31:33.126Z,2.20
2018-06-14T13:34:02.026Z,1.80
2018-06-14T13:36:30.868Z,1.40
2018-06-14T13:38:59.616Z,1.80
2018-06-14T13:41:28.568Z,2.20
2018-06-14T13:43:57.296Z,1.60
2018-06-14T13:46:26.041Z,1.80
2018-06-14T13:48:54.762Z,1.70
2018-06-14T13:51:23.441Z,1.70
2018-06-14T13:53:52.551Z,1.70
2018-06-14T13:56:21.956Z,1.80
2018-06-14T13:58:50.616Z,1.63
2018-06-14T14:01:19.308Z,1.60
2018-06-14T14:03:48.015Z,1.60
2018-06-14T14:06:30.165Z,1.90
2018-06-14T14:08:58.937Z,1.97
2018-06-14T14:11:27.679Z,1.77
2018-06-14T14:14:00.690Z,1.60
2018-06-14T14:16:29.400Z,1.60
2018-06-14T14:18:57.682Z,1.70
2018-06-14T14:21:26.515Z,1.63
2018-06-14T14:23:56.526Z,1.97
2018-06-14T14:26:26.279Z,2.20
2018-06-14T14:28:56.821Z,1.73
2018-06-14T14:31:26.221Z,1.80
2018-06-14T14:36:43.755Z,1.70
2018-06-14T14:39:13.227Z,1.70
2018-06-14T14:41:42.168Z,1.80
2018-06-14T14:44:22.852Z,2.00
2018-06-14T14:46:51.513Z,1.80
2018-06-14T14:49:20.064Z,1.60
2018-06-14T14:51:49.865Z,1.83
2018-06-14T14:54:19.168Z,1.70
2018-06-14T14:56:47.802Z,1.40
2018-06-14T14:59:16.492Z,1.90
2018-06-14T15:01:45.230Z,1.50
2018-06-14T15:04:13.870Z,1.80
2018-06-14T15:06:42.658Z,1.77
2018-06-14T15:09:11.281Z,1.80
2018-06-14T15:11:39.907Z,1.60
2018-06-14T15:14:08.637Z,1.70
2018-06-14T15:16:37.217Z,1.83
2018-06-14T15:19:06.373Z,1.80
2018-06-14T15:21:35.071Z,1.60
2018-06-14T15:24:04.538Z,1.80
2018-06-14T15:26:34.311Z,1.90
2018-06-14T15:29:05.126Z,1.60
2018-06-14T15:31:33.778Z,1.90
2018-06-14T15:34:02.345Z,1.70
2018-06-14T15:36:30.640Z,2.27
2018-06-14T15:38:59.317Z,2.07
2018-06-14T15:41:28.330Z,2.00
2018-06-14T15:43:56.973Z,2.30
2018-06-14T15:46:25.621Z,2.80
2018-06-14T15:48:54.331Z,2.70
2018-06-14T15:51:22.926Z,2.90
2018-06-14T15:53:51.788Z,2.53
2018-06-14T15:56:33.358Z,2.97
2018-06-14T15:59:03.279Z,2.77
2018-06-14T16:01:42.171Z,2.40
2018-06-14T16:04:11.284Z,3.00
2018-06-14T16:06:39.961Z,2.20
2018-06-14T16:09:11.037Z,2.60
2018-06-14T16:11:39.983Z,5.63
2018-06-14T16:14:08.896Z,2.60
2018-06-14T16:16:37.804Z,2.43
2018-06-14T16:19:24.243Z,2.60
2018-06-14T16:21:52.809Z,2.67
2018-06-14T16:24:21.444Z,2.70
2018-06-14T16:26:50.312Z,2.63
2018-06-14T16:29:19.396Z,2.70
2018-06-14T16:31:49.786Z,2.87
2018-06-14T16:34:18.554Z,2.93
2018-06-14T16:36:47.409Z,2.90
2018-06-14T16:39:15.958Z,3.00
2018-06-14T16:41:44.792Z,2.77
2018-06-14T16:44:13.373Z,6.03
2018-06-14T16:46:42.281Z,2.60
2018-06-14T16:49:13.250Z,2.73
2018-06-14T16:51:42.397Z,27.00
2018-06-14T16:54:10.930Z,3.10
2018-06-14T16:56:39.229Z,5.53
2018-06-14T16:59:07.837Z,3.10
2018-06-14T17:01:36.417Z,2.90
2018-06-14T17:04:05.514Z,2.83
2018-06-14T17:06:34.122Z,7.87
2018-06-14T17:09:02.982Z,3.10
2018-06-14T17:11:31.544Z,3.17
2018-06-14T17:14:00.177Z,3.03
2018-06-14T17:16:28.728Z,6.77
2018-06-14T17:18:57.620Z,3.27
2018-06-14T17:21:27.119Z,3.20
2018-06-14T17:23:55.786Z,4.33
2018-06-14T17:26:24.371Z,3.30
2018-06-14T17:28:53.148Z,3.47
2018-06-14T17:31:21.740Z,3.47
2018-06-14T17:33:50.828Z,3.00
2018-06-14T17:36:22.467Z,3.10
2018-06-14T17:38:51.729Z,3.03
2018-06-14T17:41:20.384Z,3.40
2018-06-14T17:43:48.981Z,3.30
2018-06-14T17:46:17.692Z,3.40
2018-06-14T17:48:46.938Z,2.97
2018-06-14T17:51:16.128Z,3.60
2018-06-14T17:53:44.748Z,9.53
2018-06-14T17:56:13.353Z,6.80
2018-06-14T17:58:41.963Z,3.90
2018-06-14T18:01:26.553Z,2.70
2018-06-14T18:03:55.328Z,2.90
2018-06-14T18:06:24.110Z,2.50
2018-06-14T18:08:52.863Z,2.70
2018-06-14T18:11:21.495Z,2.50
2018-06-14T18:13:50.402Z,2.70
2018-06-14T18:16:19.338Z,2.13
2018-06-14T18:18:47.945Z,2.50
2018-06-14T18:21:33.252Z,2.70
2018-06-14T18:24:01.913Z,2.60
2018-06-14T18:26:30.541Z,2.63
2018-06-14T18:29:00.558Z,2.80
2018-06-14T18:31:29.212Z,2.30
2018-06-14T18:33:57.798Z,2.37
2018-06-14T18:36:26.548Z,2.47
2018-06-14T18:38:55.134Z,7.07
2018-06-14T18:41:23.736Z,3.10
2018-06-14T18:43:52.380Z,2.40
2018-06-14T18:46:20.623Z,2.50
2018-06-14T18:48:49.255Z,2.50
2018-06-14T18:51:18.387Z,2.60
2018-06-14T18:53:47.932Z,2.50
2018-06-14T18:56:16.593Z,2.70
2018-06-14T18:58:45.239Z,2.40
2018-06-14T19:01:13.878Z,2.70
2018-06-14T19:03:44.568Z,2.90
2018-06-14T19:06:14.372Z,2.60
2018-06-14T19:08:43.250Z,2.60
2018-06-14T19:11:11.900Z,3.40
2018-06-14T19:13:42.534Z,2.90
2018-06-14T19:16:11.251Z,2.83
2018-06-14T19:18:39.868Z,2.70
2018-06-14T19:21:08.519Z,2.93
2018-06-14T19:23:37.160Z,3.53
2018-06-14T19:26:05.825Z,3.60
2018-06-14T19:28:34.489Z,3.63
2018-06-14T19:31:03.245Z,4.00
2018-06-14T19:33:32.498Z,3.80
2018-06-14T19:36:01.646Z,4.30
2018-06-14T19:38:30.464Z,4.60
2018-06-14T19:40:59.156Z,4.30
2018-06-14T19:43:27.864Z,4.63
2018-06-14T19:45:56.545Z,4.27
2018-06-14T19:48:25.176Z,3.80
2018-06-14T19:50:54.647Z,4.43
2018-06-14T19:53:23.273Z,4.40
2018-06-14T19:55:52.105Z,4.33
2018-06-14T19:58:20.797Z,4.50
2018-06-14T20:00:49.406Z,4.50
2018-06-14T20:03:18.093Z,4.50
2018-06-14T20:05:46.805Z,8.27
2018-06-14T20:08:17.065Z,8.80
2018-06-14T20:10:46.943Z,10.37
2018-06-14T20:13:15.992Z,7.07
2018-06-14T20:15:44.954Z,4.57
2018-06-14T20:18:17.427Z,5.00
2018-06-14T20:20:48.421Z,4.87
2018-06-14T20:23:16.999Z,4.27
2018-06-14T20:25:45.711Z,4.57
2018-06-14T20:28:14.335Z,4.37
2018-06-14T20:30:42.964Z,5.00
2018-06-14T20:33:11.798Z,4.83
2018-06-14T20:35:40.434Z,4.43
2018-06-14T20:38:12.302Z,4.50
2018-06-14T20:40:40.909Z,4.77
2018-06-14T20:43:09.530Z,4.87
2018-06-14T20:45:38.156Z,4.90
2018-06-14T20:48:06.901Z,5.30
2018-06-14T20:50:35.610Z,4.80
2018-06-14T20:53:04.287Z,4.80
2018-06-14T20:55:34.543Z,4.63
2018-06-14T20:58:03.223Z,4.83
2018-06-14T21:00:31.862Z,4.83
2018-06-14T21:03:00.450Z,4.40
2018-06-14T21:05:29.142Z,5.30
2018-06-14T21:07:57.761Z,5.10
2018-06-14T21:10:26.433Z,5.13
2018-06-14T21:12:55.052Z,4.93
2018-06-14T21:15:23.747Z,5.17
2018-06-14T21:17:52.400Z,5.23
2018-06-14T21:20:21.084Z,5.07
2018-06-14T21:22:49.671Z,4.87
2018-06-14T21:25:18.276Z,5.10
2018-06-14T21:27:46.857Z,5.00
2018-06-14T21:30:15.444Z,4.97
2018-06-14T21:32:44.005Z,5.00
2018-06-14T21:35:12.606Z,5.10
2018-06-14T21:37:41.220Z,5.20
2018-06-14T21:40:10.919Z,5.00
2018-06-14T21:42:41.097Z,5.27
2018-06-14T21:45:09.799Z,5.80
2018-06-14T21:47:38.372Z,5.37
2018-06-14T21:50:06.943Z,5.17
2018-06-14T21:52:35.509Z,5.77
2018-06-14T21:55:04.162Z,5.60
2018-06-14T21:57:32.765Z,5.17
2018-06-14T22:00:01.439Z,5.87
2018-06-14T22:02:30.008Z,5.50
2018-06-14T22:04:58.610Z,5.60
2018-06-14T22:07:27.229Z,5.87
2018-06-14T22:09:55.850Z,6.20
2018-06-14T22:12:24.519Z,6.17
2018-06-14T22:14:58.351Z,6.10
2018-06-14T22:17:26.913Z,5.73
2018-06-14T22:19:55.582Z,5.87
2018-06-14T22:22:24.223Z,5.23
2018-06-14T22:24:53.268Z,5.83
2018-06-14T22:27:21.893Z,5.70
2018-06-14T22:29:50.529Z,6.07
2018-06-14T22:32:19.188Z,5.10
2018-06-14T22:34:59.052Z,5.63
2018-06-14T22:37:27.673Z,5.10
2018-06-14T22:39:56.282Z,5.50
2018-06-14T22:42:24.912Z,6.43
2018-06-14T22:44:53.512Z,5.30
2018-06-14T22:47:22.096Z,5.33
2018-06-14T22:49:50.650Z,5.40
2018-06-14T22:53:21.992Z,5.57
2018-06-14T22:55:50.606Z,5.80
2018-06-14T22:58:19.189Z,5.87
2018-06-14T23:01:53.751Z,5.50
2018-06-14T23:04:23.672Z,5.37
2018-06-14T23:06:52.311Z,6.03
2018-06-14T23:10:32.806Z,6.27
2018-06-14T23:13:01.891Z,6.23
2018-06-14T23:15:30.608Z,6.00
2018-06-14T23:17:59.813Z,6.07
2018-06-14T23:20:30.017Z,6.00
2018-06-14T23:22:59.357Z,5.60
2018-06-14T23:25:28.791Z,6.17
2018-06-14T23:27:57.449Z,5.30
2018-06-14T23:30:26.070Z,6.10
2018-06-14T23:32:54.702Z,5.87
2018-06-14T23:35:23.281Z,6.53
2018-06-14T23:37:51.984Z,5.67
2018-06-14T23:40:20.596Z,6.10
2018-06-14T23:42:49.257Z,5.60
2018-06-14T23:45:17.824Z,6.43
2018-06-14T23:47:46.508Z,5.87
2018-06-14T23:50:15.098Z,6.13
2018-06-14T23:52:43.892Z,5.90
2018-06-14T23:55:12.565Z,5.70
2018-06-14T23:57:41.205Z,5.77
